createdAt,value
2023-04-14T00:00:17.293Z,73.5055
2023-04-14T00:01:19.666Z,74.2395
2023-04-14T00:02:22.070Z,74.2765
2023-04-14T00:03:24.619Z,73.7237
2023-04-14T00:04:26.862Z,73.6984
2023-04-14T00:05:28.967Z,74.0433
2023-04-14T00:06:31.298Z,73.7321
2023-04-14T00:07:33.609Z,73.2380
2023-04-14T00:08:35.945Z,72.5086
2023-04-14T00:09:38.286Z,72.6275
2023-04-14T00:10:40.617Z,73.4056
2023-04-14T00:11:42.961Z,73.8771
2023-04-14T00:12:45.290Z,73.9356
2023-04-14T00:13:47.609Z,74.6844
2023-04-14T00:14:49.940Z,74.8982
2023-04-14T00:15:52.284Z,74.8688
2023-04-14T00:16:54.673Z,74.0018
2023-04-14T00:17:56.994Z,73.4323
2023-04-14T00:18:59.519Z,73.6388
2023-04-14T00:20:01.602Z,73.8319
2023-04-14T00:21:03.929Z,73.2346
2023-04-14T00:22:06.278Z,72.5174
2023-04-14T00:23:08.593Z,72.3472
2023-04-14T00:24:10.928Z,72.5477
2023-04-14T00:25:13.260Z,73.0114
2023-04-14T00:26:15.587Z,73.2731
2023-04-14T00:27:17.946Z,73.3661
2023-04-14T00:28:20.256Z,73.7319
2023-04-14T00:29:22.578Z,73.8084
2023-04-14T00:30:24.920Z,74.3020
2023-04-14T00:31:27.331Z,74.3157
2023-04-14T00:32:29.621Z,74.0322
2023-04-14T00:33:31.898Z,73.7989
2023-04-14T00:34:34.239Z,73.9496
2023-04-14T00:35:36.564Z,74.0579
2023-04-14T00:36:38.893Z,73.8011
2023-04-14T00:37:41.250Z,73.4484
2023-04-14T00:38:43.558Z,73.5670
2023-04-14T00:39:45.897Z,73.7759
2023-04-14T00:40:48.233Z,73.4087
2023-04-14T00:41:50.557Z,73.1785
2023-04-14T00:42:52.913Z,72.9708
2023-04-14T00:43:55.227Z,72.4911
2023-04-14T00:44:57.562Z,72.4960
2023-04-14T00:45:59.915Z,72.6909
2023-04-14T00:47:02.249Z,74.0393
2023-04-14T00:48:04.570Z,74.5128
2023-04-14T00:49:06.887Z,74.3923
2023-04-14T00:50:09.226Z,73.9779
2023-04-14T00:51:11.560Z,73.9009
2023-04-14T00:52:13.916Z,74.6724
2023-04-14T00:53:16.240Z,74.5024
2023-04-14T00:54:18.556Z,73.7379
2023-04-14T00:55:20.879Z,73.3910
2023-04-14T00:56:23.215Z,73.5028
2023-04-14T00:57:25.548Z,73.8048
2023-04-14T00:58:27.903Z,74.7732
2023-04-14T00:59:30.220Z,75.2662
2023-04-14T01:00:32.548Z,74.7623
2023-04-14T01:01:34.908Z,74.7680
2023-04-14T01:02:37.572Z,75.2984
2023-04-14T01:03:39.643Z,75.5264
2023-04-14T01:04:53.561Z,75.3271
2023-04-14T01:05:44.202Z,75.5126
2023-04-14T01:06:46.520Z,76.0550
2023-04-14T01:07:48.850Z,76.2324
2023-04-14T01:08:51.182Z,76.3850
2023-04-14T01:09:53.521Z,76.3856
2023-04-14T01:10:55.838Z,76.3046
2023-04-14T01:11:58.181Z,76.2145
2023-04-14T01:13:00.503Z,75.5985
2023-04-14T01:14:02.874Z,75.5317
2023-04-14T01:15:05.185Z,75.0985
2023-04-14T01:16:07.528Z,75.0857
2023-04-14T01:17:09.838Z,74.5574
2023-04-14T01:18:12.169Z,73.9889
2023-04-14T01:19:14.691Z,74.1025
2023-04-14T01:20:16.836Z,73.8375
2023-04-14T01:21:19.166Z,73.8368
2023-04-14T01:22:21.502Z,73.5177
2023-04-14T01:23:23.850Z,73.5707
2023-04-14T01:24:26.175Z,74.0230
2023-04-14T01:25:28.493Z,74.9292
2023-04-14T01:26:30.825Z,75.2718
2023-04-14T01:27:33.156Z,75.3141
2023-04-14T01:28:35.484Z,74.5237
2023-04-14T01:29:37.822Z,72.9737
2023-04-14T01:30:40.136Z,72.1209
2023-04-14T01:31:42.526Z,72.0926
2023-04-14T01:32:44.836Z,71.9227
2023-04-14T01:33:47.139Z,72.4508
2023-04-14T01:34:49.481Z,72.5815
2023-04-14T01:35:51.794Z,71.9614
2023-04-14T01:36:54.114Z,71.5273
2023-04-14T01:37:56.469Z,71.7364
2023-04-14T01:38:58.961Z,73.2490
2023-04-14T01:40:01.130Z,73.8555
2023-04-14T01:41:03.440Z,73.2323
2023-04-14T01:42:05.794Z,72.7641
2023-04-14T01:43:08.114Z,72.1718
2023-04-14T01:44:10.443Z,72.5534
2023-04-14T01:45:12.777Z,72.9953
2023-04-14T01:46:15.155Z,73.1044
2023-04-14T01:47:17.464Z,73.1274
2023-04-14T01:48:19.780Z,73.3617
2023-04-14T01:49:22.176Z,73.2875
2023-04-14T01:50:24.445Z,73.3922
2023-04-14T01:51:26.768Z,73.3766
2023-04-14T01:52:29.111Z,73.8638
2023-04-14T01:53:31.432Z,74.0646
2023-04-14T01:54:33.788Z,73.6355
2023-04-14T01:55:36.114Z,72.5951
2023-04-14T01:56:38.440Z,71.8009
2023-04-14T01:57:40.792Z,71.9681
2023-04-14T01:58:43.097Z,71.5332
2023-04-14T01:59:45.420Z,71.8153
2023-04-14T02:00:47.756Z,73.4772
2023-04-14T02:01:50.168Z,73.8696
2023-04-14T02:02:52.613Z,73.4391
2023-04-14T02:03:54.813Z,73.8211
2023-04-14T02:04:57.082Z,73.7089
2023-04-14T02:05:59.413Z,73.5492
2023-04-14T02:07:01.816Z,73.5252
2023-04-14T02:08:04.085Z,73.5534
2023-04-14T02:09:06.411Z,73.5536
2023-04-14T02:10:08.756Z,73.0256
2023-04-14T02:11:11.089Z,72.8581
2023-04-14T02:12:13.424Z,73.2206
2023-04-14T02:13:15.748Z,73.4423
2023-04-14T02:14:18.081Z,73.3248
2023-04-14T02:15:20.414Z,73.1481
2023-04-14T02:16:22.773Z,72.5530
2023-04-14T02:17:25.108Z,72.4270
2023-04-14T02:18:27.416Z,72.7345
2023-04-14T02:19:29.762Z,72.5167
2023-04-14T02:20:32.069Z,72.2062
2023-04-14T02:21:34.393Z,72.1120
2023-04-14T02:22:36.722Z,71.9743
2023-04-14T02:23:39.044Z,72.2122
2023-04-14T02:24:41.397Z,72.0849
2023-04-14T02:25:43.714Z,72.2568
2023-04-14T02:26:46.043Z,72.1968
2023-04-14T02:27:48.372Z,72.0324
2023-04-14T02:28:50.698Z,71.7621
2023-04-14T02:29:53.057Z,71.9283
2023-04-14T02:30:55.405Z,72.5512
2023-04-14T02:31:57.707Z,72.3868
2023-04-14T02:33:00.041Z,72.1024
2023-04-14T02:34:02.347Z,72.3728
2023-04-14T02:35:04.690Z,72.9634
2023-04-14T02:36:07.005Z,72.8838
2023-04-14T02:37:09.350Z,72.8083
2023-04-14T02:38:11.683Z,72.4693
2023-04-14T02:39:14.002Z,73.2851
2023-04-14T02:40:16.337Z,74.0583
2023-04-14T02:41:18.652Z,75.0802
2023-04-14T02:42:20.984Z,75.7358
2023-04-14T02:43:23.314Z,75.3538
2023-04-14T02:44:25.651Z,74.5573
2023-04-14T02:45:28.061Z,74.7969
2023-04-14T02:46:30.410Z,75.8031
2023-04-14T02:47:32.741Z,76.0857
2023-04-14T02:48:35.028Z,75.8109
2023-04-14T02:49:37.384Z,76.2255
2023-04-14T02:50:39.697Z,75.4513
2023-04-14T02:51:42.014Z,74.6717
2023-04-14T02:52:44.342Z,74.0454
2023-04-14T02:53:46.673Z,74.5331
2023-04-14T02:54:49.020Z,74.8509
2023-04-14T02:55:51.336Z,75.3424
2023-04-14T02:56:53.658Z,75.2898
2023-04-14T02:57:55.990Z,74.3981
2023-04-14T02:58:58.452Z,73.7136
2023-04-14T03:00:00.645Z,74.0178
2023-04-14T03:01:02.987Z,73.8784
2023-04-14T03:02:05.444Z,73.5259
2023-04-14T03:03:07.846Z,72.9073
2023-04-14T03:04:10.001Z,72.2883
2023-04-14T03:05:12.298Z,71.7568
2023-04-14T03:06:14.637Z,71.4109
2023-04-14T03:07:16.949Z,71.2056
2023-04-14T03:08:19.277Z,71.4243
2023-04-14T03:09:21.608Z,71.1798
2023-04-14T03:10:23.937Z,71.4941
2023-04-14T03:11:26.310Z,71.5094
2023-04-14T03:12:28.621Z,71.1110
2023-04-14T03:13:30.925Z,71.1801
2023-04-14T03:14:33.255Z,71.6376
2023-04-14T03:15:35.636Z,71.8823
2023-04-14T03:16:37.938Z,71.5776
2023-04-14T03:17:40.314Z,71.1501
2023-04-14T03:18:42.567Z,70.9145
2023-04-14T03:19:44.895Z,71.2844
2023-04-14T03:20:47.284Z,72.3366
2023-04-14T03:21:49.589Z,72.1798
2023-04-14T03:22:51.889Z,71.1754
2023-04-14T03:23:54.220Z,70.7012
2023-04-14T03:24:56.569Z,71.0617
2023-04-14T03:25:58.874Z,70.7514
2023-04-14T03:27:01.221Z,70.6509
2023-04-14T03:28:03.534Z,71.9374
2023-04-14T03:29:05.866Z,72.2062
2023-04-14T03:30:08.193Z,71.2892
2023-04-14T03:31:10.562Z,70.4076
2023-04-14T03:32:12.867Z,69.9983
2023-04-14T03:33:15.182Z,69.2400
2023-04-14T03:34:17.520Z,69.5048
2023-04-14T03:35:19.848Z,70.3323
2023-04-14T03:36:22.188Z,71.0203
2023-04-14T03:37:24.532Z,72.2701
2023-04-14T03:38:26.839Z,72.6681
2023-04-14T03:39:29.167Z,72.7604
2023-04-14T03:40:31.515Z,72.6192
2023-04-14T03:41:33.833Z,72.6227
2023-04-14T03:42:36.268Z,72.9111
2023-04-14T03:43:38.504Z,72.7930
2023-04-14T03:44:40.828Z,72.6321
2023-04-14T03:45:43.140Z,72.6918
2023-04-14T03:46:45.486Z,73.1498
2023-04-14T03:47:47.851Z,74.8386
2023-04-14T03:48:50.133Z,75.4775
2023-04-14T03:49:52.456Z,74.9927
2023-04-14T03:50:54.813Z,74.3274
2023-04-14T03:51:57.117Z,74.2488
2023-04-14T03:52:59.450Z,74.9904
2023-04-14T03:54:01.779Z,75.3532
2023-04-14T03:55:04.123Z,74.7360
2023-04-14T03:56:06.453Z,73.9034
2023-04-14T03:57:08.769Z,73.2461
2023-04-14T03:58:11.111Z,73.2790
2023-04-14T03:59:13.437Z,72.9140
2023-04-14T04:00:15.844Z,73.3949
2023-04-14T04:01:18.096Z,73.2767
2023-04-14T04:02:20.544Z,73.3702
2023-04-14T04:03:23.060Z,73.2246
2023-04-14T04:04:25.228Z,73.2133
2023-04-14T04:05:27.428Z,73.5070
2023-04-14T04:06:29.733Z,73.3357
2023-04-14T04:07:32.058Z,73.7250
2023-04-14T04:08:34.406Z,74.5010
2023-04-14T04:09:36.712Z,74.0575
2023-04-14T04:10:39.052Z,73.6873
2023-04-14T04:11:41.377Z,74.8518
2023-04-14T04:12:43.836Z,75.6275
2023-04-14T04:13:46.042Z,76.8027
2023-04-14T04:14:48.364Z,77.2914
2023-04-14T04:15:50.700Z,76.1168
2023-04-14T04:16:53.077Z,75.2533
2023-04-14T04:17:55.367Z,75.2542
2023-04-14T04:18:57.711Z,75.3152
2023-04-14T04:20:00.003Z,75.9490
2023-04-14T04:21:02.408Z,76.3714
2023-04-14T04:22:04.679Z,76.8530
2023-04-14T04:23:06.993Z,76.6671
2023-04-14T04:24:09.337Z,76.4262
2023-04-14T04:25:11.659Z,76.6006
2023-04-14T04:26:14.018Z,76.0462
2023-04-14T04:27:27.237Z,75.5112
2023-04-14T04:28:18.636Z,76.0673
2023-04-14T04:29:20.975Z,76.3759
2023-04-14T04:30:23.296Z,77.1522
2023-04-14T04:31:25.647Z,77.9758
2023-04-14T04:32:28.185Z,78.1219
2023-04-14T04:33:30.280Z,77.8182
2023-04-14T04:34:32.620Z,77.9596
2023-04-14T04:35:34.937Z,77.4111
2023-04-14T04:36:37.274Z,76.7116
2023-04-14T04:37:39.628Z,76.6658
2023-04-14T04:38:41.944Z,77.3150
2023-04-14T04:39:44.260Z,77.6610
2023-04-14T04:40:46.591Z,78.3007
2023-04-14T04:41:48.929Z,78.8189
2023-04-14T04:42:51.277Z,78.4324
2023-04-14T04:43:53.588Z,76.8950
2023-04-14T04:44:55.930Z,76.9934
2023-04-14T04:45:58.340Z,76.9352
2023-04-14T04:47:00.578Z,77.2614
2023-04-14T04:48:03.002Z,77.0149
2023-04-14T04:49:05.264Z,76.1026
2023-04-14T04:50:07.580Z,75.5886
2023-04-14T04:51:09.901Z,75.3652
2023-04-14T04:52:12.250Z,74.9587
2023-04-14T04:53:14.594Z,74.6391
2023-04-14T04:54:16.893Z,74.4712
2023-04-14T04:55:19.220Z,74.4969
2023-04-14T04:56:21.553Z,75.1954
2023-04-14T04:57:23.882Z,75.6891
2023-04-14T04:58:26.210Z,75.6546
2023-04-14T04:59:28.542Z,75.4372
2023-04-14T05:00:30.863Z,76.0955
2023-04-14T05:01:33.253Z,77.4162
2023-04-14T05:02:35.667Z,78.2598
2023-04-14T05:03:37.896Z,77.5469
2023-04-14T05:04:40.234Z,76.9205
2023-04-14T05:05:42.519Z,76.2800
2023-04-14T05:06:44.839Z,75.8740
2023-04-14T05:07:47.167Z,76.6070
2023-04-14T05:08:49.496Z,76.8862
2023-04-14T05:09:51.821Z,77.6838
2023-04-14T05:10:54.140Z,78.8551
2023-04-14T05:11:56.475Z,78.5400
2023-04-14T05:12:58.798Z,78.7911
2023-04-14T05:14:01.138Z,77.9934
2023-04-14T05:15:03.452Z,77.5433
2023-04-14T05:16:05.828Z,77.3977
2023-04-14T05:17:08.117Z,76.8139
2023-04-14T05:18:10.465Z,75.9942
2023-04-14T05:19:12.772Z,75.7663
2023-04-14T05:20:15.103Z,75.6109
2023-04-14T05:21:17.426Z,75.0849
2023-04-14T05:22:19.776Z,75.2668
2023-04-14T05:23:22.107Z,75.1695
2023-04-14T05:24:24.423Z,74.9499
2023-04-14T05:25:26.755Z,74.8856
2023-04-14T05:26:46.430Z,74.5541
2023-04-14T05:27:31.448Z,73.9596
2023-04-14T05:28:33.745Z,72.9500
2023-04-14T05:29:36.071Z,72.4162
2023-04-14T05:30:38.401Z,72.1779
2023-04-14T05:31:40.875Z,72.4613
2023-04-14T05:32:43.106Z,72.6237
2023-04-14T05:33:45.402Z,72.6098
2023-04-14T05:34:47.729Z,72.1700
2023-04-14T05:35:50.057Z,71.0892
2023-04-14T05:36:52.393Z,70.7632
2023-04-14T05:37:54.713Z,70.5630
2023-04-14T05:38:57.070Z,70.5451
2023-04-14T05:39:59.380Z,70.9702
2023-04-14T05:41:01.714Z,71.5779
2023-04-14T05:42:04.043Z,72.4096
2023-04-14T05:43:06.377Z,72.9223
2023-04-14T05:44:08.732Z,73.0358
2023-04-14T05:45:11.043Z,71.7798
2023-04-14T05:46:13.376Z,71.2089
2023-04-14T05:47:15.730Z,70.9193
2023-04-14T05:48:18.032Z,71.1675
2023-04-14T05:49:20.369Z,71.6671
2023-04-14T05:50:22.703Z,72.1201
2023-04-14T05:51:25.029Z,71.9060
2023-04-14T05:52:27.361Z,72.2885
2023-04-14T05:53:29.688Z,72.9850
2023-04-14T05:54:32.033Z,73.6477
2023-04-14T05:55:34.359Z,72.8529
2023-04-14T05:56:36.705Z,72.1329
2023-04-14T05:57:39.012Z,72.4092
2023-04-14T05:58:41.333Z,73.6233
2023-04-14T05:59:43.749Z,73.4029
2023-04-14T06:00:46.001Z,73.3233
2023-04-14T06:01:48.415Z,73.1510
2023-04-14T06:02:50.846Z,72.9876
2023-04-14T06:03:53.215Z,73.3154
2023-04-14T06:04:55.442Z,73.8457
2023-04-14T06:05:57.646Z,73.8923
2023-04-14T06:06:59.984Z,73.9940
2023-04-14T06:08:02.320Z,74.7569
2023-04-14T06:09:04.644Z,74.2495
2023-04-14T06:10:06.998Z,73.6247
2023-04-14T06:11:09.307Z,72.6892
2023-04-14T06:12:11.645Z,72.1022
2023-04-14T06:13:13.968Z,72.6525
2023-04-14T06:14:16.299Z,73.0711
2023-04-14T06:15:18.632Z,73.3355
2023-04-14T06:16:21.050Z,74.2442
2023-04-14T06:17:23.329Z,74.3630
2023-04-14T06:18:25.630Z,74.0434
2023-04-14T06:19:27.951Z,74.2007
2023-04-14T06:20:32.145Z,73.8365
2023-04-14T06:21:32.612Z,72.9404
2023-04-14T06:22:34.959Z,73.3040
2023-04-14T06:23:37.285Z,73.7691
2023-04-14T06:24:39.613Z,74.2646
2023-04-14T06:25:41.952Z,73.2197
2023-04-14T06:26:44.287Z,73.8442
2023-04-14T06:27:46.617Z,73.8266
2023-04-14T06:28:48.950Z,73.3155
2023-04-14T06:29:51.275Z,72.4033
2023-04-14T06:30:53.627Z,72.4915
2023-04-14T06:31:55.986Z,73.1212
2023-04-14T06:32:58.326Z,74.5736
2023-04-14T06:34:00.612Z,74.8718
2023-04-14T06:35:02.938Z,74.2972
2023-04-14T06:36:05.278Z,73.8328
2023-04-14T06:37:07.624Z,73.8496
2023-04-14T06:38:09.932Z,73.8108
2023-04-14T06:39:12.277Z,74.0430
2023-04-14T06:40:14.587Z,74.2511
2023-04-14T06:41:16.916Z,73.6991
2023-04-14T06:42:19.247Z,73.2819
2023-04-14T06:43:21.591Z,73.4850
2023-04-14T06:44:23.906Z,73.8129
2023-04-14T06:45:26.247Z,72.7230
2023-04-14T06:46:28.646Z,71.5327
2023-04-14T06:47:30.933Z,71.3306
2023-04-14T06:48:33.262Z,72.0343
2023-04-14T06:49:35.576Z,72.6999
2023-04-14T06:50:37.955Z,72.3402
2023-04-14T06:51:40.291Z,71.8029
2023-04-14T06:52:42.622Z,70.6335
2023-04-14T06:53:44.944Z,70.4586
2023-04-14T06:54:47.273Z,71.0614
2023-04-14T06:55:49.604Z,70.6172
2023-04-14T06:56:51.930Z,72.1197
2023-04-14T06:57:54.259Z,72.3723
2023-04-14T06:58:56.596Z,71.7772
2023-04-14T06:59:58.918Z,71.3918
2023-04-14T07:01:01.295Z,72.4447
2023-04-14T07:02:03.711Z,71.9770
2023-04-14T07:03:06.104Z,70.8535
2023-04-14T07:04:08.555Z,69.9544
2023-04-14T07:05:10.646Z,69.3450
2023-04-14T07:06:12.913Z,69.5604
2023-04-14T07:07:15.239Z,71.3340
2023-04-14T07:08:17.573Z,71.0051
2023-04-14T07:09:19.983Z,70.6125
2023-04-14T07:10:22.239Z,71.0839
2023-04-14T07:11:24.580Z,71.2206
2023-04-14T07:12:26.921Z,72.0123
2023-04-14T07:13:29.241Z,71.5768
2023-04-14T07:14:31.590Z,69.9285
2023-04-14T07:15:33.920Z,69.9534
2023-04-14T07:16:36.226Z,70.3470
2023-04-14T07:17:38.605Z,69.8434
2023-04-14T07:18:40.898Z,70.5201
2023-04-14T07:19:43.245Z,70.6352
2023-04-14T07:20:45.568Z,70.8662
2023-04-14T07:21:47.892Z,69.8071
2023-04-14T07:22:50.231Z,70.4604
2023-04-14T07:23:52.562Z,69.8769
2023-04-14T07:24:54.888Z,69.7378
2023-04-14T07:25:57.226Z,69.1738
2023-04-14T07:26:59.553Z,68.3398
2023-04-14T07:28:03.974Z,68.1652
2023-04-14T07:29:04.210Z,68.6231
2023-04-14T07:30:06.541Z,68.6940
2023-04-14T07:31:08.959Z,69.3017
2023-04-14T07:32:11.200Z,70.6630
2023-04-14T07:33:13.526Z,70.2715
2023-04-14T07:34:15.861Z,69.2580
2023-04-14T07:35:18.193Z,68.6418
2023-04-14T07:36:20.521Z,68.3284
2023-04-14T07:37:22.955Z,68.5012
2023-04-14T07:38:25.180Z,68.5501
2023-04-14T07:39:27.513Z,67.2840
2023-04-14T07:40:29.866Z,66.4458
2023-04-14T07:41:32.184Z,65.7067
2023-04-14T07:42:34.521Z,66.8425
2023-04-14T07:43:36.862Z,69.2753
2023-04-14T07:44:39.172Z,69.5990
2023-04-14T07:45:41.504Z,68.5839
2023-04-14T07:46:43.950Z,68.7548
2023-04-14T07:47:46.231Z,67.0198
2023-04-14T07:48:48.506Z,66.5580
2023-04-14T07:49:50.843Z,64.6467
2023-04-14T07:50:53.163Z,65.3291
2023-04-14T07:51:55.550Z,65.5561
2023-04-14T07:52:57.838Z,66.4473
2023-04-14T07:54:00.320Z,66.1727
2023-04-14T07:55:02.481Z,64.9780
2023-04-14T07:56:04.825Z,65.1134
2023-04-14T07:57:07.153Z,66.6537
2023-04-14T07:58:09.485Z,66.5395
2023-04-14T07:59:11.815Z,65.8085
2023-04-14T08:00:14.140Z,65.4371
2023-04-14T08:01:16.474Z,64.7280
2023-04-14T08:02:18.908Z,63.1543
2023-04-14T08:03:21.438Z,63.0550
2023-04-14T08:04:23.496Z,63.4824
2023-04-14T08:05:25.837Z,62.9797
2023-04-14T08:06:28.150Z,62.6426
2023-04-14T08:07:31.210Z,62.5724
2023-04-14T08:08:32.814Z,61.5475
2023-04-14T08:09:35.126Z,61.4973
2023-04-14T08:10:37.459Z,61.4180
2023-04-14T08:11:39.795Z,62.0570
2023-04-14T08:12:42.133Z,61.3582
2023-04-14T08:13:44.480Z,61.2253
2023-04-14T08:14:46.804Z,61.7273
2023-04-14T08:15:49.220Z,59.5022
2023-04-14T08:16:51.567Z,58.7700
2023-04-14T08:17:53.842Z,58.9380
2023-04-14T08:18:58.011Z,59.4812
2023-04-14T08:19:58.485Z,58.3666
2023-04-14T08:21:00.850Z,58.2660
2023-04-14T08:22:03.168Z,58.4121
2023-04-14T08:23:05.491Z,59.2453
2023-04-14T08:24:07.828Z,59.7108
2023-04-14T08:25:10.705Z,59.7363
2023-04-14T08:26:12.510Z,59.1100
2023-04-14T08:27:14.834Z,59.3577
2023-04-14T08:28:17.187Z,59.6906
2023-04-14T08:29:19.516Z,59.2111
2023-04-14T08:30:21.851Z,58.3498
2023-04-14T08:31:24.393Z,57.2606
2023-04-14T08:32:28.655Z,57.2795
2023-04-14T08:33:28.873Z,58.2086
2023-04-14T08:34:31.219Z,57.9944
2023-04-14T08:35:39.766Z,57.5829
2023-04-14T08:36:35.895Z,57.3635
2023-04-14T08:37:38.230Z,57.3671
2023-04-14T08:38:40.561Z,57.5151
2023-04-14T08:39:42.894Z,58.4898
2023-04-14T08:40:45.224Z,59.3993
2023-04-14T08:41:47.571Z,57.6197
2023-04-14T08:42:49.908Z,56.2637
2023-04-14T08:43:52.249Z,55.5918
2023-04-14T08:44:54.574Z,55.8745
2023-04-14T08:45:56.981Z,56.0570
2023-04-14T08:46:59.254Z,55.6001
2023-04-14T08:48:01.670Z,56.7068
2023-04-14T08:49:03.954Z,56.7525
2023-04-14T08:50:06.300Z,56.1888
2023-04-14T08:51:08.608Z,55.6804
2023-04-14T08:52:10.945Z,55.5591
2023-04-14T08:53:13.287Z,55.8492
2023-04-14T08:54:15.631Z,53.3711
2023-04-14T08:55:17.968Z,53.2337
2023-04-14T08:56:20.307Z,52.6057
2023-04-14T08:57:22.670Z,52.9888
2023-04-14T08:58:24.991Z,53.5110
2023-04-14T08:59:27.325Z,53.4875
2023-04-14T09:00:29.677Z,55.1522
2023-04-14T09:01:34.343Z,55.4538
2023-04-14T09:02:34.446Z,54.3168
2023-04-14T09:03:37.843Z,53.6147
2023-04-14T09:04:39.112Z,52.4292
2023-04-14T09:05:41.371Z,51.6607
2023-04-14T09:06:43.715Z,51.6268
2023-04-14T09:07:46.059Z,51.7058
2023-04-14T09:08:48.409Z,52.3672
2023-04-14T09:09:50.718Z,53.8844
2023-04-14T09:10:53.073Z,52.6165
2023-04-14T09:11:55.392Z,52.2236
2023-04-14T09:12:57.740Z,51.6213
2023-04-14T09:14:00.365Z,51.7357
2023-04-14T09:15:02.463Z,51.8476
2023-04-14T09:16:04.747Z,51.9913
2023-04-14T09:17:07.116Z,52.3288
2023-04-14T09:18:09.452Z,53.6736
2023-04-14T09:19:11.776Z,53.6510
2023-04-14T09:20:35.717Z,52.5855
2023-04-14T09:21:49.825Z,51.1932
2023-04-14T09:22:18.774Z,51.6839
2023-04-14T09:23:21.698Z,52.5353
2023-04-14T09:24:23.528Z,51.7197
2023-04-14T09:25:25.800Z,50.7277
2023-04-14T09:26:28.137Z,50.7638
2023-04-14T09:27:30.479Z,51.7915
2023-04-14T09:28:32.826Z,53.4062
2023-04-14T09:29:35.183Z,55.8717
2023-04-14T09:30:37.568Z,56.5686
2023-04-14T09:31:39.935Z,55.3991
2023-04-14T09:32:42.213Z,54.6494
2023-04-14T09:33:44.567Z,54.5963
2023-04-14T09:34:46.872Z,53.9158
2023-04-14T09:35:49.210Z,53.4526
2023-04-14T09:36:51.541Z,54.0330
2023-04-14T09:37:53.882Z,54.9666
2023-04-14T09:38:56.216Z,54.4876
2023-04-14T09:39:58.581Z,54.2782
2023-04-14T09:41:00.896Z,54.2691
2023-04-14T09:42:03.232Z,54.8853
2023-04-14T09:43:05.574Z,57.0584
2023-04-14T09:44:07.911Z,57.6439
2023-04-14T09:45:10.390Z,58.5048
2023-04-14T09:46:12.701Z,59.8686
2023-04-14T09:47:14.931Z,59.9066
2023-04-14T09:48:17.271Z,60.5192
2023-04-14T09:49:19.621Z,59.3694
2023-04-14T09:50:21.947Z,59.4680
2023-04-14T09:51:24.277Z,58.2963
2023-04-14T09:52:26.623Z,57.0605
2023-04-14T09:53:28.976Z,56.7538
2023-04-14T09:54:31.302Z,55.8198
2023-04-14T09:55:33.633Z,54.9475
2023-04-14T09:56:35.974Z,54.3585
2023-04-14T09:57:38.340Z,53.5118
2023-04-14T09:58:40.652Z,52.9203
2023-04-14T09:59:42.994Z,53.9356
2023-04-14T10:00:45.329Z,53.4796
2023-04-14T10:01:47.748Z,52.9358
2023-04-14T10:02:50.141Z,52.5512
2023-04-14T10:03:52.420Z,51.9575
2023-04-14T10:04:54.775Z,51.6184
2023-04-14T10:05:57.030Z,52.8663
2023-04-14T10:06:59.373Z,51.7289
2023-04-14T10:08:01.712Z,52.4215
2023-04-14T10:09:04.483Z,52.0978
2023-04-14T10:10:06.412Z,50.3709
2023-04-14T10:11:08.745Z,51.3834
2023-04-14T10:12:11.105Z,51.8224
2023-04-14T10:13:13.432Z,51.7528
2023-04-14T10:14:15.772Z,51.2294
2023-04-14T10:15:18.114Z,50.3176
2023-04-14T10:16:20.492Z,50.5416
2023-04-14T10:17:22.863Z,49.5294
2023-04-14T10:18:25.139Z,50.0677
2023-04-14T10:19:27.497Z,50.2797
2023-04-14T10:20:29.824Z,50.7440
2023-04-14T10:21:32.173Z,51.2876
2023-04-14T10:22:34.525Z,52.1788
2023-04-14T10:23:36.856Z,51.4943
2023-04-14T10:24:39.197Z,51.4360
2023-04-14T10:25:41.540Z,48.9703
2023-04-14T10:26:43.891Z,47.9938
2023-04-14T10:27:46.241Z,49.2738
2023-04-14T10:28:48.562Z,50.0008
2023-04-14T10:29:50.898Z,50.1955
2023-04-14T10:30:53.248Z,50.5166
2023-04-14T10:31:55.597Z,50.6618
2023-04-14T10:32:57.983Z,50.0413
2023-04-14T10:34:00.264Z,51.6267
2023-04-14T10:35:02.595Z,51.6197
2023-04-14T10:36:04.938Z,50.8984
2023-04-14T10:37:07.272Z,51.1711
2023-04-14T10:38:09.622Z,52.2673
2023-04-14T10:39:11.962Z,51.6488
2023-04-14T10:40:14.297Z,51.5497
2023-04-14T10:41:16.646Z,51.2304
2023-04-14T10:42:18.988Z,51.9041
2023-04-14T10:43:21.351Z,52.6535
2023-04-14T10:44:23.674Z,53.0101
2023-04-14T10:45:26.004Z,53.1166
2023-04-14T10:46:28.364Z,53.8761
2023-04-14T10:47:30.714Z,52.3101
2023-04-14T10:48:33.057Z,50.9188
2023-04-14T10:49:35.381Z,49.3831
2023-04-14T10:50:37.707Z,49.5297
2023-04-14T10:51:40.065Z,49.8805
2023-04-14T10:52:42.402Z,49.3537
2023-04-14T10:53:44.764Z,49.7502
2023-04-14T10:54:47.079Z,49.7465
2023-04-14T10:55:51.998Z,49.2131
2023-04-14T10:56:51.836Z,49.1301
2023-04-14T10:57:54.193Z,49.0146
2023-04-14T10:58:56.518Z,49.3508
2023-04-14T10:59:59.136Z,47.7667
2023-04-14T11:01:01.220Z,47.7894
2023-04-14T11:02:03.587Z,46.8790
2023-04-14T11:03:06.055Z,47.1529
2023-04-14T11:04:08.425Z,46.4225
2023-04-14T11:05:10.576Z,45.9149
2023-04-14T11:06:12.907Z,45.9797
2023-04-14T11:07:15.248Z,45.1949
2023-04-14T11:08:17.603Z,44.9519
2023-04-14T11:09:19.933Z,44.7554
2023-04-14T11:10:22.299Z,45.1185
2023-04-14T11:11:24.634Z,44.1580
2023-04-14T11:12:26.972Z,44.2344
2023-04-14T11:13:29.323Z,42.9450
2023-04-14T11:14:31.655Z,41.7381
2023-04-14T11:15:34.000Z,41.7925
2023-04-14T11:16:38.673Z,42.4185
2023-04-14T11:17:38.916Z,42.6648
2023-04-14T11:18:41.465Z,44.0521
2023-04-14T11:19:43.371Z,44.7287
2023-04-14T11:20:45.720Z,45.0063
2023-04-14T11:21:48.051Z,44.4055
2023-04-14T11:22:50.397Z,45.2131
2023-04-14T11:23:52.737Z,44.8558
2023-04-14T11:24:55.084Z,44.5588
2023-04-14T11:25:57.443Z,43.8897
2023-04-14T11:26:59.768Z,43.8070
2023-04-14T11:28:02.156Z,44.0197
2023-04-14T11:29:04.473Z,44.6108
2023-04-14T11:30:06.824Z,45.2302
2023-04-14T11:31:09.151Z,44.9176
2023-04-14T11:32:11.516Z,44.8822
2023-04-14T11:33:13.872Z,44.6591
2023-04-14T11:34:16.160Z,45.5732
2023-04-14T11:35:18.510Z,45.5404
2023-04-14T11:36:20.863Z,44.9435
2023-04-14T11:37:23.216Z,45.2468
2023-04-14T11:38:25.535Z,46.4627
2023-04-14T11:39:27.883Z,46.4166
2023-04-14T11:40:30.227Z,45.1470
2023-04-14T11:41:32.585Z,43.9610
2023-04-14T11:42:34.920Z,44.4600
2023-04-14T11:43:37.259Z,45.2591
2023-04-14T11:44:39.608Z,46.5407
2023-04-14T11:45:41.980Z,46.3066
2023-04-14T11:46:44.276Z,45.6746
2023-04-14T11:47:46.651Z,44.7702
2023-04-14T11:48:48.972Z,43.9596
2023-04-14T11:49:51.316Z,43.7561
2023-04-14T11:50:53.712Z,43.7054
2023-04-14T11:51:55.990Z,42.8635
2023-04-14T11:52:58.330Z,42.8795
2023-04-14T11:54:00.700Z,43.3568
2023-04-14T11:55:03.052Z,43.4421
2023-04-14T11:56:05.371Z,43.5097
2023-04-14T11:57:07.708Z,43.8060
2023-04-14T11:58:10.031Z,43.0291
2023-04-14T11:59:12.385Z,42.9544
2023-04-14T12:00:14.862Z,43.4937
2023-04-14T12:01:17.055Z,43.1608
2023-04-14T12:02:19.611Z,42.9515
2023-04-14T12:03:21.938Z,43.1306
2023-04-14T12:04:24.345Z,43.2838
2023-04-14T12:05:26.455Z,43.4582
2023-04-14T12:06:28.777Z,44.1495
2023-04-14T12:07:31.120Z,44.0029
2023-04-14T12:08:33.456Z,44.4052
2023-04-14T12:09:35.766Z,44.2727
2023-04-14T12:10:38.099Z,44.7708
2023-04-14T12:11:40.453Z,44.7016
2023-04-14T12:12:42.777Z,44.2714
2023-04-14T12:13:45.124Z,43.7208
2023-04-14T12:14:47.471Z,43.4751
2023-04-14T12:15:49.823Z,44.2969
2023-04-14T12:16:52.152Z,44.2639
2023-04-14T12:17:55.697Z,44.3977
2023-04-14T12:18:56.821Z,43.9421
2023-04-14T12:19:59.168Z,44.9681
2023-04-14T12:21:01.502Z,46.0129
2023-04-14T12:22:03.849Z,45.6563
2023-04-14T12:23:06.173Z,43.2373
2023-04-14T12:24:08.513Z,44.1912
2023-04-14T12:25:10.850Z,45.7379
2023-04-14T12:26:13.226Z,44.3057
2023-04-14T12:27:15.541Z,44.0954
2023-04-14T12:28:17.867Z,44.6776
2023-04-14T12:29:20.216Z,46.6278
2023-04-14T12:30:22.548Z,46.5447
2023-04-14T12:31:24.922Z,45.8509
2023-04-14T12:32:27.258Z,43.6669
2023-04-14T12:33:29.567Z,42.6178